sensor_id;sensor_type;location;lat;lon;timestamp;pressure;altitude;pressure_sealevel;temperature;humidity
52975;BME280;38839;45.186;5.720;2023-04-20T00:02:01;98645.50;;;13.14;60.93
52975;BME280;38839;45.186;5.720;2023-04-20T00:04:29;98648.06;;;13.17;60.99
52975;BME280;38839;45.186;5.720;2023-04-20T00:06:55;98646.41;;;13.13;61.22
52975;BME280;38839;45.186;5.720;2023-04-20T00:09:25;98637.75;;;13.08;61.35
52975;BME280;38839;45.186;5.720;2023-04-20T00:11:51;98640.56;;;13.00;61.25
52975;BME280;38839;45.186;5.720;2023-04-20T00:14:17;98636.22;;;12.99;61.45
52975;BME280;38839;45.186;5.720;2023-04-20T00:16:43;98637.16;;;12.97;61.43
52975;BME280;38839;45.186;5.720;2023-04-20T00:19:08;98631.06;;;12.96;61.32
52975;BME280;38839;45.186;5.720;2023-04-20T00:21:34;98630.22;;;12.94;61.45
52975;BME280;38839;45.186;5.720;2023-04-20T00:24:02;98624.28;;;12.86;61.45
52975;BME280;38839;45.186;5.720;2023-04-20T00:26:28;98620.78;;;12.85;61.55
52975;BME280;38839;45.186;5.720;2023-04-20T00:28:54;98621.69;;;12.86;61.37
52975;BME280;38839;45.186;5.720;2023-04-20T00:31:19;98616.47;;;12.84;61.44
52975;BME280;38839;45.186;5.720;2023-04-20T00:33:46;98613.94;;;12.80;61.62
52975;BME280;38839;45.186;5.720;2023-04-20T00:36:12;98610.50;;;12.78;61.72
52975;BME280;38839;45.186;5.720;2023-04-20T00:38:37;98607.97;;;12.73;61.60
52975;BME280;38839;45.186;5.720;2023-04-20T00:41:03;98608.88;;;12.71;61.50
52975;BME280;38839;45.186;5.720;2023-04-20T00:43:28;98596.88;;;12.62;61.62
52975;BME280;38839;45.186;5.720;2023-04-20T00:45:54;98597.75;;;12.61;61.47
52975;BME280;38839;45.186;5.720;2023-04-20T00:48:20;98598.66;;;12.60;61.71
52975;BME280;38839;45.186;5.720;2023-04-20T00:50:48;98594.25;;;12.60;61.75
52975;BME280;38839;45.186;5.720;2023-04-20T00:53:13;98596.06;;;12.57;61.60
52975;BME280;38839;45.186;5.720;2023-04-20T00:55:42;98598.75;;;12.55;61.99
52975;BME280;38839;45.186;5.720;2023-04-20T00:58:07;98595.34;;;12.50;61.88
52975;BME280;38839;45.186;5.720;2023-04-20T01:00:33;98594.50;;;12.50;61.87
52975;BME280;38839;45.186;5.720;2023-04-20T01:03:01;98580.69;;;12.41;61.97
52975;BME280;38839;45.186;5.720;2023-04-20T01:05:27;98586.75;;;12.45;62.01
52975;BME280;38839;45.186;5.720;2023-04-20T01:07:52;98582.34;;;12.47;62.04
52975;BME280;38839;45.186;5.720;2023-04-20T01:10:17;98578.09;;;12.40;61.99
52975;BME280;38839;45.186;5.720;2023-04-20T01:12:43;98580.69;;;12.41;62.08
52975;BME280;38839;45.186;5.720;2023-04-20T01:15:09;98580.63;;;12.44;61.96
52975;BME280;38839;45.186;5.720;2023-04-20T01:17:35;98578.91;;;12.43;62.08
52975;BME280;38839;45.186;5.720;2023-04-20T01:20:05;98573.69;;;12.43;62.03
52975;BME280;38839;45.186;5.720;2023-04-20T01:22:33;98578.09;;;12.40;61.94
52975;BME280;38839;45.186;5.720;2023-04-20T01:24:58;98573.84;;;12.34;62.06
52975;BME280;38839;45.186;5.720;2023-04-20T01:27:24;98568.78;;;12.26;62.21
52975;BME280;38839;45.186;5.720;2023-04-20T01:29:49;98560.88;;;12.30;62.13
52975;BME280;38839;45.186;5.720;2023-04-20T01:32:17;98561.72;;;12.30;62.56
52975;BME280;38839;45.186;5.720;2023-04-20T01:34:43;98563.50;;;12.28;62.38
52975;BME280;38839;45.186;5.720;2023-04-20T01:37:08;98558.16;;;12.34;62.13
52975;BME280;38839;45.186;5.720;2023-04-20T01:39:38;98560.00;;;12.29;62.14
52975;BME280;38839;45.186;5.720;2023-04-20T01:42:04;98563.50;;;12.28;62.24
52975;BME280;38839;45.186;5.720;2023-04-20T01:44:30;98555.66;;;12.28;62.32
52975;BME280;38839;45.186;5.720;2023-04-20T01:46:55;98551.31;;;12.28;62.76
52975;BME280;38839;45.186;5.720;2023-04-20T01:49:20;98555.72;;;12.25;62.55
52975;BME280;38839;45.186;5.720;2023-04-20T01:51:48;98556.59;;;12.25;62.84
52975;BME280;38839;45.186;5.720;2023-04-20T01:54:14;98563.63;;;12.22;62.85
52975;BME280;38839;45.186;5.720;2023-04-20T01:56:39;98553.34;;;12.13;63.14
52975;BME280;38839;45.186;5.720;2023-04-20T01:59:04;98556.91;;;12.08;63.30
52975;BME280;38839;45.186;5.720;2023-04-20T02:01:32;98549.94;;;12.07;63.14
52975;BME280;38839;45.186;5.720;2023-04-20T02:03:58;98552.53;;;12.11;63.21
52975;BME280;38839;45.186;5.720;2023-04-20T02:06:23;98558.69;;;12.06;63.30
52975;BME280;38839;45.186;5.720;2023-04-20T02:08:48;98551.97;;;11.93;63.33
52975;BME280;38839;45.186;5.720;2023-04-20T02:11:14;98550.28;;;11.89;63.84
52975;BME280;38839;45.186;5.720;2023-04-20T02:13:39;98548.50;;;11.93;63.82
52975;BME280;38839;45.186;5.720;2023-04-20T02:16:05;98538.00;;;11.94;63.61
52975;BME280;38839;45.186;5.720;2023-04-20T02:18:30;98548.34;;;12.00;63.42
52975;BME280;38839;45.186;5.720;2023-04-20T02:20:57;98537.94;;;11.97;63.61
52975;BME280;38839;45.186;5.720;2023-04-20T02:23:23;98549.31;;;11.95;63.55
52975;BME280;38839;45.186;5.720;2023-04-20T02:25:48;98554.56;;;11.95;63.61
52975;BME280;38839;45.186;5.720;2023-04-20T02:28:14;98542.38;;;11.94;63.91
52975;BME280;38839;45.186;5.720;2023-04-20T02:30:39;98540.53;;;11.99;63.47
52975;BME280;38839;45.186;5.720;2023-04-20T02:33:07;98537.94;;;11.97;63.75
52975;BME280;38839;45.186;5.720;2023-04-20T02:35:32;98534.50;;;11.95;63.89
52975;BME280;38839;45.186;5.720;2023-04-20T02:37:58;98533.66;;;11.93;63.93
52975;BME280;38839;45.186;5.720;2023-04-20T02:40:23;98535.50;;;11.90;63.89
52975;BME280;38839;45.186;5.720;2023-04-20T02:42:49;98540.81;;;11.83;65.02
52975;BME280;38839;45.186;5.720;2023-04-20T02:45:14;98540.81;;;11.83;64.47
52975;BME280;38839;45.186;5.720;2023-04-20T02:47:40;98534.84;;;11.75;64.63
52975;BME280;38839;45.186;5.720;2023-04-20T02:50:06;98547.13;;;11.68;65.43
52975;BME280;38839;45.186;5.720;2023-04-20T02:52:32;98541.03;;;11.71;65.13
52975;BME280;38839;45.186;5.720;2023-04-20T02:54:58;98537.69;;;11.63;65.20
52975;BME280;38839;45.186;5.720;2023-04-20T02:57:23;98542.84;;;11.64;64.98
52975;BME280;38839;45.186;5.720;2023-04-20T02:59:52;98531.63;;;11.59;65.19
52975;BME280;38839;45.186;5.720;2023-04-20T03:02:17;98532.50;;;11.58;65.47
52975;BME280;38839;45.186;5.720;2023-04-20T03:04:43;98529.09;;;11.55;65.30
52975;BME280;38839;45.186;5.720;2023-04-20T03:07:08;98530.81;;;11.57;65.14
52975;BME280;38839;45.186;5.720;2023-04-20T03:09:36;98540.34;;;11.58;65.44
52975;BME280;38839;45.186;5.720;2023-04-20T03:12:05;98531.66;;;11.56;65.39
52975;BME280;38839;45.186;5.720;2023-04-20T03:14:30;98528.28;;;11.51;65.11
52975;BME280;38839;45.186;5.720;2023-04-20T03:16:56;98536.13;;;11.51;65.33
52975;BME280;38839;45.186;5.720;2023-04-20T03:19:22;98523.06;;;11.51;65.03
52975;BME280;38839;45.186;5.720;2023-04-20T03:21:48;98533.63;;;11.45;65.15
52975;BME280;38839;45.186;5.720;2023-04-20T03:24:13;98531.94;;;11.41;65.16
52975;BME280;38839;45.186;5.720;2023-04-20T03:26:41;98526.63;;;11.47;64.98
52975;BME280;38839;45.186;5.720;2023-04-20T03:29:06;98528.38;;;11.46;65.11
52975;BME280;38839;45.186;5.720;2023-04-20T03:31:32;98529.25;;;11.45;64.94
52975;BME280;38839;45.186;5.720;2023-04-20T03:33:57;98531.94;;;11.41;65.07
52975;BME280;38839;45.186;5.720;2023-04-20T03:36:23;98525.09;;;11.34;65.27
52975;BME280;38839;45.186;5.720;2023-04-20T03:38:48;98526.81;;;11.35;65.53
52975;BME280;38839;45.186;5.720;2023-04-20T03:41:14;98524.94;;;11.43;65.24
52975;BME280;38839;45.186;5.720;2023-04-20T03:43:40;98526.66;;;11.44;65.14
52975;BME280;38839;45.186;5.720;2023-04-20T03:46:08;98528.44;;;11.42;65.13
52975;BME280;38839;45.186;5.720;2023-04-20T03:48:33;98531.97;;;11.38;65.05
52975;BME280;38839;45.186;5.720;2023-04-20T03:51:02;98524.94;;;11.43;65.04
52975;BME280;38839;45.186;5.720;2023-04-20T03:53:27;98534.69;;;11.32;65.55
52975;BME280;38839;45.186;5.720;2023-04-20T03:55:55;98521.69;;;11.28;65.31
52975;BME280;38839;45.186;5.720;2023-04-20T03:58:20;98525.09;;;11.34;65.19
52975;BME280;38839;45.186;5.720;2023-04-20T04:00:46;98519.84;;;11.34;65.08
52975;BME280;38839;45.186;5.720;2023-04-20T04:03:12;98520.75;;;11.34;65.25
52975;BME280;38839;45.186;5.720;2023-04-20T04:05:39;98515.41;;;11.40;65.02
52975;BME280;38839;45.186;5.720;2023-04-20T04:08:04;98516.31;;;11.38;65.12
52975;BME280;38839;45.186;5.720;2023-04-20T04:10:30;98518.03;;;11.39;65.01
52975;BME280;38839;45.186;5.720;2023-04-20T04:12:55;98517.13;;;11.43;64.87
52975;BME280;38839;45.186;5.720;2023-04-20T04:15:21;98511.16;;;11.35;65.00
52975;BME280;38839;45.186;5.720;2023-04-20T04:17:47;98524.22;;;11.35;65.05
52975;BME280;38839;45.186;5.720;2023-04-20T04:20:15;98516.41;;;11.33;65.15
52975;BME280;38839;45.186;5.720;2023-04-20T04:22:41;98515.47;;;11.36;64.82
52975;BME280;38839;45.186;5.720;2023-04-20T04:25:07;98501.66;;;11.29;64.77
52975;BME280;38839;45.186;5.720;2023-04-20T04:27:33;98511.09;;;11.38;64.93
52975;BME280;38839;45.186;5.720;2023-04-20T04:30:02;98507.59;;;11.39;64.66
52975;BME280;38839;45.186;5.720;2023-04-20T04:32:27;98508.53;;;11.36;64.92
52975;BME280;38839;45.186;5.720;2023-04-20T04:34:53;98504.13;;;11.38;64.94
52975;BME280;38839;45.186;5.720;2023-04-20T04:37:19;98521.50;;;11.41;64.86
52975;BME280;38839;45.186;5.720;2023-04-20T04:39:44;98515.31;;;11.46;64.85
52975;BME280;38839;45.186;5.720;2023-04-20T04:42:10;98506.66;;;11.44;64.69
52975;BME280;38839;45.186;5.720;2023-04-20T04:44:36;98509.31;;;11.40;64.71
52975;BME280;38839;45.186;5.720;2023-04-20T04:47:02;98506.56;;;11.49;64.53
52975;BME280;38839;45.186;5.720;2023-04-20T04:49:29;98517.78;;;11.54;64.27
52975;BME280;38839;45.186;5.720;2023-04-20T04:51:55;98510.00;;;11.51;64.06
52975;BME280;38839;45.186;5.720;2023-04-20T04:54:20;98511.81;;;11.46;64.16
52975;BME280;38839;45.186;5.720;2023-04-20T04:56:48;98512.72;;;11.45;64.20
52975;BME280;38839;45.186;5.720;2023-04-20T04:59:16;98511.06;;;11.41;64.37
52975;BME280;38839;45.186;5.720;2023-04-20T05:01:41;98509.38;;;11.37;64.43
52975;BME280;38839;45.186;5.720;2023-04-20T05:04:06;98507.75;;;11.30;64.74
52975;BME280;38839;45.186;5.720;2023-04-20T05:06:34;98514.72;;;11.27;64.87
52975;BME280;38839;45.186;5.720;2023-04-20T05:09:00;98516.41;;;11.32;64.82
52975;BME280;38839;45.186;5.720;2023-04-20T05:11:25;98510.34;;;11.31;64.80
52975;BME280;38839;45.186;5.720;2023-04-20T05:13:51;98508.53;;;11.36;64.98
52975;BME280;38839;45.186;5.720;2023-04-20T05:16:17;98506.78;;;11.37;64.95
52975;BME280;38839;45.186;5.720;2023-04-20T05:18:42;98511.06;;;11.41;64.88
52975;BME280;38839;45.186;5.720;2023-04-20T05:21:08;98512.63;;;11.51;64.55
52975;BME280;38839;45.186;5.720;2023-04-20T05:23:33;98516.88;;;11.57;64.28
52975;BME280;38839;45.186;5.720;2023-04-20T05:25:58;98516.06;;;11.53;64.57
52975;BME280;38839;45.186;5.720;2023-04-20T05:28:24;98508.97;;;11.61;64.47
52975;BME280;38839;45.186;5.720;2023-04-20T05:30:49;98514.19;;;11.60;64.49
52975;BME280;38839;45.186;5.720;2023-04-20T05:33:15;98512.34;;;11.66;64.58
52975;BME280;38839;45.186;5.720;2023-04-20T05:35:40;98519.31;;;11.67;64.38
52975;BME280;38839;45.186;5.720;2023-04-20T05:38:06;98517.28;;;11.82;64.00
52975;BME280;38839;45.186;5.720;2023-04-20T05:40:32;98511.97;;;11.88;63.64
52975;BME280;38839;45.186;5.720;2023-04-20T05:43:00;98523.09;;;11.99;63.58
52975;BME280;38839;45.186;5.720;2023-04-20T05:45:26;98522.03;;;12.10;63.07
52975;BME280;38839;45.186;5.720;2023-04-20T05:47:52;98526.41;;;12.07;63.42
52975;BME280;38839;45.186;5.720;2023-04-20T05:50:18;98528.03;;;12.15;63.28
52975;BME280;38839;45.186;5.720;2023-04-20T05:52:43;98534.09;;;12.17;63.10
52975;BME280;38839;45.186;5.720;2023-04-20T05:55:11;98533.97;;;12.23;63.02
52975;BME280;38839;45.186;5.720;2023-04-20T05:57:37;98535.69;;;12.24;63.01
52975;BME280;38839;45.186;5.720;2023-04-20T06:00:08;98543.47;;;12.28;62.85
52975;BME280;38839;45.186;5.720;2023-04-20T06:02:34;98538.94;;;12.37;62.68
52975;BME280;38839;45.186;5.720;2023-04-20T06:04:59;98545.91;;;12.36;62.57
52975;BME280;38839;45.186;5.720;2023-04-20T06:07:25;98552.75;;;12.43;62.27
52975;BME280;38839;45.186;5.720;2023-04-20T06:09:50;98547.41;;;12.50;62.15
52975;BME280;38839;45.186;5.720;2023-04-20T06:12:16;98563.00;;;12.53;61.94
52975;BME280;38839;45.186;5.720;2023-04-20T06:14:41;98556.94;;;12.52;61.93
52975;BME280;38839;45.186;5.720;2023-04-20T06:17:07;98563.47;;;12.73;61.43
52975;BME280;38839;45.186;5.720;2023-04-20T06:19:32;98556.50;;;12.74;61.23
52975;BME280;38839;45.186;5.720;2023-04-20T06:21:57;98560.78;;;12.76;60.92
52975;BME280;38839;45.186;5.720;2023-04-20T06:24:23;98570.09;;;12.89;60.87
52975;BME280;38839;45.186;5.720;2023-04-20T06:26:48;98563.13;;;12.90;60.44
52975;BME280;38839;45.186;5.720;2023-04-20T06:29:14;98571.81;;;12.91;60.82
52975;BME280;38839;45.186;5.720;2023-04-20T06:31:40;98565.00;;;12.83;61.45
52975;BME280;38839;45.186;5.720;2023-04-20T06:34:05;98571.28;;;12.75;62.17
52975;BME280;38839;45.186;5.720;2023-04-20T06:36:31;98564.41;;;12.69;62.55
52975;BME280;38839;45.186;5.720;2023-04-20T06:38:56;98561.66;;;12.77;63.21
52975;BME280;38839;45.186;5.720;2023-04-20T06:41:22;98559.13;;;12.74;64.08
52975;BME280;38839;45.186;5.720;2023-04-20T06:43:48;98568.78;;;12.70;64.22
52975;BME280;38839;45.186;5.720;2023-04-20T06:46:13;98561.78;;;12.71;64.76
52975;BME280;38839;45.186;5.720;2023-04-20T06:48:39;98555.75;;;12.67;65.39
52975;BME280;38839;45.186;5.720;2023-04-20T06:51:04;98567.03;;;12.69;65.68
52975;BME280;38839;45.186;5.720;2023-04-20T06:53:29;98566.84;;;12.78;65.24
52975;BME280;38839;45.186;5.720;2023-04-20T06:55:55;98572.00;;;12.81;65.04
52975;BME280;38839;45.186;5.720;2023-04-20T06:58:21;98565.75;;;12.88;64.97
52975;BME280;38839;45.186;5.720;2023-04-20T07:00:46;98560.22;;;13.02;64.69
52975;BME280;38839;45.186;5.720;2023-04-20T07:03:11;98558.50;;;13.01;64.76
52975;BME280;38839;45.186;5.720;2023-04-20T07:05:37;98552.69;;;12.87;64.85
52975;BME280;38839;45.186;5.720;2023-04-20T07:08:02;98557.28;;;12.77;65.35
52975;BME280;38839;45.186;5.720;2023-04-20T07:10:28;98559.03;;;12.77;65.28
52975;BME280;38839;45.186;5.720;2023-04-20T07:12:53;98559.13;;;12.72;65.86
52975;BME280;38839;45.186;5.720;2023-04-20T07:15:18;98557.66;;;12.59;66.24
52975;BME280;38839;45.186;5.720;2023-04-20T07:17:44;98564.41;;;12.69;66.35
52975;BME280;38839;45.186;5.720;2023-04-20T07:20:09;98559.25;;;12.66;66.53
52975;BME280;38839;45.186;5.720;2023-04-20T07:22:38;98555.88;;;12.61;67.14
52975;BME280;38839;45.186;5.720;2023-04-20T07:25:04;98546.16;;;12.67;67.03
52975;BME280;38839;45.186;5.720;2023-04-20T07:27:34;98551.13;;;12.80;67.31
52975;BME280;38839;45.186;5.720;2023-04-20T07:29:59;98557.25;;;12.79;67.33
52975;BME280;38839;45.186;5.720;2023-04-20T07:32:25;98552.94;;;12.76;67.55
52975;BME280;38839;45.186;5.720;2023-04-20T07:34:51;98546.16;;;12.67;68.66
52975;BME280;38839;45.186;5.720;2023-04-20T07:37:17;98545.41;;;12.61;68.88
52975;BME280;38839;45.186;5.720;2023-04-20T07:39:42;98544.25;;;12.32;69.79
52975;BME280;38839;45.186;5.720;2023-04-20T07:42:07;98544.31;;;12.29;69.90
52975;BME280;38839;45.186;5.720;2023-04-20T07:44:33;98548.00;;;12.19;70.41
52975;BME280;38839;45.186;5.720;2023-04-20T07:47:00;98541.81;;;12.23;70.32
52975;BME280;38839;45.186;5.720;2023-04-20T07:49:25;98553.13;;;12.25;70.45
52975;BME280;38839;45.186;5.720;2023-04-20T07:51:51;98547.22;;;12.14;70.60
52975;BME280;38839;45.186;5.720;2023-04-20T07:54:16;98542.81;;;12.16;70.56
52975;BME280;38839;45.186;5.720;2023-04-20T07:56:42;98542.69;;;12.22;70.32
52975;BME280;38839;45.186;5.720;2023-04-20T07:59:07;98537.44;;;12.25;70.33
52975;BME280;38839;45.186;5.720;2023-04-20T08:01:34;98525.53;;;12.08;71.14
52975;BME280;38839;45.186;5.720;2023-04-20T08:04:00;98522.94;;;12.07;71.84
52975;BME280;38839;45.186;5.720;2023-04-20T08:06:25;98517.09;;;11.94;71.97
52975;BME280;38839;45.186;5.720;2023-04-20T23:17:57;98578.59;;;11.06;86.60
52975;BME280;38839;45.186;5.720;2023-04-20T23:20:23;98572.53;;;11.03;86.49
52975;BME280;38839;45.186;5.720;2023-04-20T23:22:48;98573.56;;;10.93;87.63
52975;BME280;38839;45.186;5.720;2023-04-20T23:25:14;98564.72;;;11.03;87.33
52975;BME280;38839;45.186;5.720;2023-04-20T23:27:39;98560.22;;;11.14;86.88
52975;BME280;38839;45.186;5.720;2023-04-20T23:30:05;98571.53;;;11.13;87.59
52975;BME280;38839;45.186;5.720;2023-04-20T23:32:31;98573.47;;;10.99;88.38
52975;BME280;38839;45.186;5.720;2023-04-20T23:34:57;98569.34;;;10.84;88.62
52975;BME280;38839;45.186;5.720;2023-04-20T23:37:24;98567.59;;;10.84;89.05
52975;BME280;38839;45.186;5.720;2023-04-20T23:39:50;98555.59;;;10.71;90.75
52975;BME280;38839;45.186;5.720;2023-04-20T23:42:15;98559.81;;;10.81;89.98
52975;BME280;38839;45.186;5.720;2023-04-20T23:44:41;98573.19;;;10.57;89.67
52975;BME280;38839;45.186;5.720;2023-04-20T23:47:09;98574.34;;;10.31;91.71
52975;BME280;38839;45.186;5.720;2023-04-20T23:49:35;98566.59;;;10.22;93.59
52975;BME280;38839;45.186;5.720;2023-04-20T23:52:00;98559.63;;;10.21;93.89
52975;BME280;38839;45.186;5.720;2023-04-20T23:54:26;98557.09;;;10.18;94.68
52975;BME280;38839;45.186;5.720;2023-04-20T23:56:51;98564.84;;;10.21;94.29
52975;BME280;38839;45.186;5.720;2023-04-20T23:59:16;98567.38;;;10.27;94.75
